Hauptseite
METAR-TAF:

METAR-TAF

Flughäfen :

Flughafen Kano

Kano, Nigeria

Breite: 12-03N, Länge: 008-32E, Höhe: 476 m

Beobachtung

Neuester Wetterbericht von vor 32 Minuten, um 03:00 UTC
Wind 6 kt aus Südwest
Temperatur 26°C
Luftfeuchtigkeit 89%
Luftdruck 1013 hPa
Sichtweite 10 km oder mehr
keine Wolken unter 1500 m und keine Kumulonimbus oder Gewitterwolken

METAR: DNKN 180300Z 23006KT CAVOK 26/24 Q1013 NOSIG

Zeit: 04:32 (03:32 UTC)

Prognose

Neuester Wetterbericht von vor 4 Stunden und 32 Minuten, um 23:00 UTC
Gültige Prognose vom 18 um 00 UTC bis 19 um 06 UTC
Wind 8 kt aus West
Sichtweite 10 km oder mehr
keine Wolken unter 1500 m und keine Kumulonimbus oder Gewitterwolken
Zeitweise
vom 18 um 01 UTC bis 18 um 05 UTC
Aufgelockert bewölkt in der Höhe von 1000 ft
Leicht bewölkt in der Höhe von 1900 ft, Kumulonimbus.
Gewitter,

TAF: DNKN 172300Z 1800/1906 26008KT CAVOK TEMPO 1801/1805 TS SCT010 FEW019CB

Wetterbeobachtungen und Prognosen von mehr als 4000 Flughäfen (METAR und TAF Bericht).

Die verfügbaren Stationen werden durch gelbe und rote Markierungen auf der Karte dargestellt.

Führen Sie die Maus auf sie, um den Namen der Station zu sehen.

Darauf klicken, um die Beobachtung von Wetterbeobachtungen und Prognosen zu sehen.

Um die Karte zu ändern : klicken Sie auf den grünen Tasten mit einem schwarzen Kreuz Zum Vergrößern, auf den grünen Button mit einem Gedankenstrich zu verkleinern, oder auf die grünen Pfeile für benachbarte Karten.


METAR-TAF: